createdAt,value
2017-04-08T00:00:49.490Z,975.55
2017-04-08T00:01:58.269Z,975.57
2017-04-08T00:03:07.032Z,975.53
2017-04-08T00:04:15.758Z,975.5
2017-04-08T00:05:24.838Z,975.5
2017-04-08T00:06:33.623Z,975.51
2017-04-08T00:07:42.691Z,975.54
2017-04-08T00:08:51.723Z,975.52
2017-04-08T00:10:00.803Z,975.5
2017-04-08T00:11:09.899Z,975.52
2017-04-08T00:12:18.679Z,975.5
2017-04-08T00:13:27.708Z,975.49
2017-04-08T00:14:37.390Z,975.5
2017-04-08T00:15:46.476Z,975.52
2017-04-08T00:16:55.560Z,975.49
2017-04-08T00:18:04.566Z,975.52
2017-04-08T00:19:13.289Z,975.5
2017-04-08T00:20:22.675Z,975.52
2017-04-08T00:21:31.444Z,975.48
2017-04-08T00:22:40.183Z,975.53
2017-04-08T00:23:48.966Z,975.44
2017-04-08T00:24:58.099Z,975.46
2017-04-08T00:26:07.191Z,975.46
2017-04-08T00:27:16.474Z,975.44
2017-04-08T00:28:25.498Z,975.44
2017-04-08T00:29:34.203Z,975.44
2017-04-08T00:30:43.235Z,975.43
2017-04-08T00:31:52.009Z,975.37
2017-04-08T00:33:01.253Z,975.43
2017-04-08T00:34:10.957Z,975.41
2017-04-08T00:35:20.357Z,975.36
2017-04-08T00:36:29.133Z,975.36
2017-04-08T00:37:37.911Z,975.36
2017-04-08T00:38:47.248Z,975.35
2017-04-08T00:39:56.312Z,975.32
2017-04-08T00:41:05.348Z,975.37
2017-04-08T00:42:14.425Z,975.31
2017-04-08T00:43:23.816Z,975.38
2017-04-08T00:44:33.825Z,975.3
2017-04-08T00:45:43.520Z,975.28
2017-04-08T00:46:52.314Z,975.29
2017-04-08T00:48:01.083Z,975.29
2017-04-08T00:49:10.132Z,975.31
2017-04-08T00:50:19.833Z,975.26
2017-04-08T00:51:28.918Z,975.22
2017-04-08T00:52:37.695Z,975.27
2017-04-08T00:53:46.793Z,975.27
2017-04-08T00:54:56.191Z,975.29
2017-04-08T00:56:04.976Z,975.28
2017-04-08T00:57:14.367Z,975.25
2017-04-08T00:58:23.775Z,975.25
2017-04-08T00:59:33.147Z,975.26
2017-04-08T01:00:42.556Z,975.33
2017-04-08T01:01:51.645Z,975.31
2017-04-08T01:03:00.434Z,975.29
2017-04-08T01:04:09.520Z,975.31
2017-04-08T01:05:18.602Z,975.27
2017-04-08T01:06:27.681Z,975.3
2017-04-08T01:07:36.464Z,975.22
2017-04-08T01:08:45.558Z,975.2
2017-04-08T01:09:54.636Z,975.2
2017-04-08T01:11:03.686Z,975.16
2017-04-08T01:12:12.463Z,975.2
2017-04-08T01:13:21.539Z,975.23
2017-04-08T01:14:31.543Z,975.23
2017-04-08T01:15:41.233Z,975.18
2017-04-08T01:16:50.020Z,975.18
2017-04-08T01:17:58.750Z,975.18
2017-04-08T01:19:07.857Z,975.15
2017-04-08T01:20:16.843Z,975.15
2017-04-08T01:21:25.919Z,975.11
2017-04-08T01:22:35.009Z,975.11
2017-04-08T01:23:43.774Z,975.09
2017-04-08T01:24:52.494Z,975.11
2017-04-08T01:26:01.491Z,975.1
2017-04-08T01:27:10.581Z,975.07
2017-04-08T01:28:19.972Z,975.1
2017-04-08T01:29:29.054Z,975.11
2017-04-08T01:30:37.838Z,975.13
2017-04-08T01:31:46.623Z,975.07
2017-04-08T01:32:55.407Z,975.08
2017-04-08T01:34:04.495Z,975.06
2017-04-08T01:35:13.573Z,975.04
2017-04-08T01:36:22.352Z,975.08
2017-04-08T01:37:31.096Z,975.07
2017-04-08T01:38:39.830Z,975.07
2017-04-08T01:39:48.619Z,975.09
2017-04-08T01:40:58.022Z,975.1
2017-04-08T01:42:07.106Z,975.09
2017-04-08T01:43:15.872Z,975.05
2017-04-08T01:44:24.599Z,975.05
2017-04-08T01:45:33.690Z,975.09
2017-04-08T01:46:42.477Z,975.09
2017-04-08T01:47:51.266Z,975.06
2017-04-08T01:49:00.621Z,975.06
2017-04-08T01:50:09.647Z,975.06
2017-04-08T01:51:18.434Z,975.06
2017-04-08T01:52:27.207Z,975.06
2017-04-08T01:53:37.148Z,974.99
2017-04-08T01:54:45.929Z,975.02
2017-04-08T01:55:55.610Z,975.02
2017-04-08T01:57:04.351Z,975.02
2017-04-08T01:58:13.119Z,975.02
2017-04-08T01:59:22.843Z,975.02
2017-04-08T02:00:31.914Z,974.95
2017-04-08T02:01:40.981Z,974.94
2017-04-08T02:02:50.420Z,974.93
2017-04-08T02:03:59.537Z,974.9
2017-04-08T02:05:08.331Z,974.89
2017-04-08T02:06:17.407Z,974.9
2017-04-08T02:07:26.114Z,974.89
2017-04-08T02:08:35.188Z,974.9
2017-04-08T02:09:44.251Z,974.93
2017-04-08T02:10:53.546Z,974.9
2017-04-08T02:12:02.454Z,974.92
2017-04-08T02:13:11.204Z,974.94
2017-04-08T02:14:20.211Z,974.92
2017-04-08T02:15:28.970Z,974.93
2017-04-08T02:16:38.044Z,974.9
2017-04-08T02:17:47.117Z,974.96
2017-04-08T02:18:56.433Z,974.99
2017-04-08T02:20:05.505Z,974.96
2017-04-08T02:21:14.570Z,974.99
2017-04-08T02:22:23.942Z,974.98
2017-04-08T02:23:33.025Z,975
2017-04-08T02:24:42.414Z,975.04
2017-04-08T02:25:51.171Z,975.02
2017-04-08T02:26:59.940Z,974.97
2017-04-08T02:28:08.664Z,975
2017-04-08T02:29:18.035Z,975.02
2017-04-08T02:30:27.439Z,975.05
2017-04-08T02:31:36.146Z,975.05
2017-04-08T02:32:44.889Z,975.05
2017-04-08T02:33:53.894Z,975.05
2017-04-08T02:35:02.949Z,975
2017-04-08T02:36:11.966Z,975.02
2017-04-08T02:37:20.733Z,975.01
2017-04-08T02:38:29.805Z,975.03
2017-04-08T02:39:38.568Z,974.98
2017-04-08T02:40:47.341Z,975.01
2017-04-08T02:41:56.104Z,975.03
2017-04-08T02:43:05.223Z,975.02
2017-04-08T02:44:14.276Z,975.04
2017-04-08T02:45:23.580Z,975.03
2017-04-08T02:46:32.295Z,975
2017-04-08T02:47:41.660Z,975
2017-04-08T02:48:50.716Z,974.97
2017-04-08T02:49:59.412Z,974.99
2017-04-08T02:51:08.171Z,974.99
2017-04-08T02:52:16.936Z,974.97
2017-04-08T02:53:25.705Z,975.01
2017-04-08T02:54:34.465Z,975.02
2017-04-08T02:55:43.535Z,975.01
2017-04-08T02:56:52.307Z,975
2017-04-08T02:58:01.055Z,975.02
2017-04-08T02:59:10.127Z,974.97
2017-04-08T03:00:18.841Z,975.03
2017-04-08T03:01:27.599Z,974.96
2017-04-08T03:02:36.304Z,974.97
2017-04-08T03:03:45.068Z,974.99
2017-04-08T03:04:53.831Z,974.99
2017-04-08T03:06:03.219Z,974.98
2017-04-08T03:07:11.977Z,974.99
2017-04-08T03:08:20.681Z,975.03
2017-04-08T03:09:29.735Z,975.04
2017-04-08T03:10:38.743Z,975
2017-04-08T03:11:47.507Z,975.02
2017-04-08T03:12:56.269Z,975.01
2017-04-08T03:14:05.314Z,975.02
2017-04-08T03:15:14.082Z,975.03
2017-04-08T03:16:22.828Z,975.01
2017-04-08T03:17:31.527Z,975
2017-04-08T03:18:40.302Z,975
2017-04-08T03:19:49.068Z,975.01
2017-04-08T03:20:58.444Z,975.01
2017-04-08T03:22:07.498Z,975.02
2017-04-08T03:23:16.207Z,974.99
2017-04-08T03:24:25.281Z,975.01
2017-04-08T03:25:34.059Z,974.99
2017-04-08T03:26:42.868Z,975
2017-04-08T03:27:51.946Z,974.97
2017-04-08T03:29:01.010Z,975.01
2017-04-08T03:30:10.335Z,974.99
2017-04-08T03:31:19.084Z,974.99
2017-04-08T03:32:27.851Z,974.97
2017-04-08T03:33:36.903Z,975
2017-04-08T03:34:45.611Z,974.97
2017-04-08T03:35:54.989Z,974.98
2017-04-08T03:37:04.046Z,975.01
2017-04-08T03:38:13.116Z,975.03
2017-04-08T03:39:21.880Z,975.05
2017-04-08T03:40:30.944Z,974.99
2017-04-08T03:41:39.706Z,974.98
2017-04-08T03:42:48.455Z,975
2017-04-08T03:43:57.154Z,974.99
2017-04-08T03:45:06.223Z,975
2017-04-08T03:46:15.297Z,974.94
2017-04-08T03:47:24.061Z,974.95
2017-04-08T03:48:33.426Z,974.94
2017-04-08T03:49:42.180Z,974.96
2017-04-08T03:50:50.945Z,974.96
2017-04-08T03:52:00.616Z,974.95
2017-04-08T03:53:09.683Z,974.95
2017-04-08T03:54:18.708Z,974.96
2017-04-08T03:55:27.784Z,974.97
2017-04-08T03:56:36.550Z,974.99
2017-04-08T03:57:45.616Z,974.94
2017-04-08T03:58:55.005Z,974.96
2017-04-08T04:00:04.234Z,974.91
2017-04-08T04:01:12.995Z,974.95
2017-04-08T04:02:22.355Z,974.94
2017-04-08T04:03:31.426Z,974.95
2017-04-08T04:04:41.089Z,974.94
2017-04-08T04:05:50.111Z,974.97
2017-04-08T04:06:59.174Z,974.97
2017-04-08T04:08:07.935Z,974.95
2017-04-08T04:09:16.695Z,974.96
2017-04-08T04:10:26.620Z,975.01
2017-04-08T04:11:35.382Z,975.01
2017-04-08T04:12:44.142Z,975
2017-04-08T04:13:53.202Z,975.02
2017-04-08T04:15:02.217Z,975.04
2017-04-08T04:16:10.991Z,975.05
2017-04-08T04:17:19.756Z,975.02
2017-04-08T04:18:28.508Z,975.01
2017-04-08T04:19:37.508Z,975.07
2017-04-08T04:20:46.825Z,975.04
2017-04-08T04:21:55.593Z,975.06
2017-04-08T04:23:04.871Z,975.06
2017-04-08T04:24:13.923Z,975.03
2017-04-08T04:25:23.227Z,975.01
2017-04-08T04:26:32.554Z,974.98
2017-04-08T04:27:41.317Z,975.02
2017-04-08T04:28:51.007Z,975.04
2017-04-08T04:30:00.383Z,975.01
2017-04-08T04:31:09.089Z,975.02
2017-04-08T04:32:17.860Z,975.03
2017-04-08T04:33:26.925Z,975.03
2017-04-08T04:34:35.675Z,975.04
2017-04-08T04:35:45.052Z,975.08
2017-04-08T04:36:53.801Z,975.08
2017-04-08T04:38:02.554Z,975.06
2017-04-08T04:39:11.908Z,975.07
2017-04-08T04:40:20.673Z,975.09
2017-04-08T04:41:29.428Z,975.07
2017-04-08T04:42:38.140Z,975.11
2017-04-08T04:43:46.909Z,975.11
2017-04-08T04:44:55.665Z,975.1
2017-04-08T04:46:04.737Z,975.13
2017-04-08T04:47:13.502Z,975.1
2017-04-08T04:48:22.561Z,975.17
2017-04-08T04:49:31.314Z,975.16
2017-04-08T04:50:40.271Z,975.17
2017-04-08T04:51:49.323Z,975.18
2017-04-08T04:52:58.636Z,975.18
2017-04-08T04:54:07.391Z,975.22
2017-04-08T04:55:16.395Z,975.2
2017-04-08T04:56:25.412Z,975.21
2017-04-08T04:57:34.186Z,975.23
2017-04-08T04:58:42.958Z,975.25
2017-04-08T04:59:52.008Z,975.24
2017-04-08T05:01:00.739Z,975.25
2017-04-08T05:02:09.806Z,975.25
2017-04-08T05:03:18.562Z,975.26
2017-04-08T05:04:27.869Z,975.25
2017-04-08T05:05:36.883Z,975.22
2017-04-08T05:06:45.645Z,975.26
2017-04-08T05:07:54.411Z,975.25
2017-04-08T05:09:03.175Z,975.25
2017-04-08T05:10:11.941Z,975.25
2017-04-08T05:11:20.703Z,975.27
2017-04-08T05:12:29.497Z,975.27
2017-04-08T05:13:38.282Z,975.25
2017-04-08T05:14:47.351Z,975.25
2017-04-08T05:15:56.114Z,975.23
2017-04-08T05:17:05.367Z,975.25
2017-04-08T05:18:14.065Z,975.27
2017-04-08T05:19:23.428Z,975.26
2017-04-08T05:20:32.420Z,975.29
2017-04-08T05:21:41.117Z,975.33
2017-04-08T05:22:49.832Z,975.33
2017-04-08T05:23:58.902Z,975.33
2017-04-08T05:25:07.697Z,975.35
2017-04-08T05:26:16.753Z,975.33
2017-04-08T05:27:26.119Z,975.4
2017-04-08T05:28:35.546Z,975.36
2017-04-08T05:29:45.240Z,975.38
2017-04-08T05:30:54.296Z,975.36
2017-04-08T05:32:03.357Z,975.39
2017-04-08T05:33:12.106Z,975.41
2017-04-08T05:34:20.814Z,975.41
2017-04-08T05:35:29.582Z,975.38
2017-04-08T05:36:38.345Z,975.41
2017-04-08T05:37:47.105Z,975.42
2017-04-08T05:38:56.180Z,975.39
2017-04-08T05:40:04.952Z,975.42
2017-04-08T05:41:13.716Z,975.44
2017-04-08T05:42:22.773Z,975.45
2017-04-08T05:43:31.481Z,975.41
2017-04-08T05:44:40.854Z,975.45
2017-04-08T05:45:49.871Z,975.44
2017-04-08T05:46:58.632Z,975.44
2017-04-08T05:48:07.684Z,975.44
2017-04-08T05:49:16.385Z,975.42
2017-04-08T05:50:26.008Z,975.45
2017-04-08T05:51:34.769Z,975.43
2017-04-08T05:52:44.387Z,975.46
2017-04-08T05:53:53.457Z,975.49
2017-04-08T05:55:02.542Z,975.5
2017-04-08T05:56:11.606Z,975.5
2017-04-08T05:57:20.678Z,975.44
2017-04-08T05:58:29.440Z,975.46
2017-04-08T05:59:39.429Z,975.44
2017-04-08T06:00:48.808Z,975.44
2017-04-08T06:01:57.871Z,975.45
2017-04-08T06:03:06.636Z,975.41
2017-04-08T06:04:15.700Z,975.44
2017-04-08T06:05:24.466Z,975.44
2017-04-08T06:06:33.225Z,975.41
2017-04-08T06:07:42.282Z,975.44
2017-04-08T06:08:51.331Z,975.46
2017-04-08T06:10:00.095Z,975.45
2017-04-08T06:11:09.776Z,975.5
2017-04-08T06:12:18.529Z,975.49
2017-04-08T06:13:27.314Z,975.5
2017-04-08T06:14:37.006Z,975.51
2017-04-08T06:15:46.381Z,975.49
2017-04-08T06:16:55.148Z,975.5
2017-04-08T06:18:04.243Z,975.53
2017-04-08T06:19:13.013Z,975.51
2017-04-08T06:20:22.093Z,975.53
2017-04-08T06:21:31.153Z,975.5
2017-04-08T06:22:39.871Z,975.52
2017-04-08T06:23:48.635Z,975.56
2017-04-08T06:24:57.402Z,975.58
2017-04-08T06:26:06.171Z,975.54
2017-04-08T06:27:14.932Z,975.56
2017-04-08T06:28:23.688Z,975.56
2017-04-08T06:29:32.489Z,975.6
2017-04-08T06:30:41.244Z,975.59
2017-04-08T06:31:50.003Z,975.61
2017-04-08T06:32:58.767Z,975.57
2017-04-08T06:34:07.852Z,975.55
2017-04-08T06:35:16.626Z,975.57
2017-04-08T06:36:25.402Z,975.53
2017-04-08T06:37:34.478Z,975.51
2017-04-08T06:38:43.537Z,975.5
2017-04-08T06:39:52.296Z,975.54
2017-04-08T06:41:01.678Z,975.53
2017-04-08T06:42:10.690Z,975.55
2017-04-08T06:43:19.442Z,975.56
2017-04-08T06:44:28.162Z,975.57
2017-04-08T06:45:37.232Z,975.62
2017-04-08T06:46:46.290Z,975.66
2017-04-08T06:47:55.344Z,975.62
2017-04-08T06:49:04.661Z,975.66
2017-04-08T06:50:13.719Z,975.67
2017-04-08T06:51:22.721Z,975.64
2017-04-08T06:52:31.417Z,975.65
2017-04-08T06:53:40.123Z,975.63
2017-04-08T06:54:49.827Z,975.64
2017-04-08T06:55:58.905Z,975.61
2017-04-08T06:57:08.222Z,975.64
2017-04-08T06:58:17.907Z,975.68
2017-04-08T06:59:26.971Z,975.65
2017-04-08T07:00:36.026Z,975.63
2017-04-08T07:01:45.086Z,975.68
2017-04-08T07:02:53.847Z,975.64
2017-04-08T07:04:03.539Z,975.61
2017-04-08T07:05:12.714Z,975.65
2017-04-08T07:06:21.479Z,975.65
2017-04-08T07:07:30.242Z,975.61
2017-04-08T07:08:39.296Z,975.64
2017-04-08T07:09:49.140Z,975.63
2017-04-08T07:10:57.897Z,975.68
2017-04-08T07:12:06.602Z,975.64
2017-04-08T07:13:15.323Z,975.69
2017-04-08T07:14:24.089Z,975.67
2017-04-08T07:15:33.166Z,975.67
2017-04-08T07:16:42.240Z,975.67
2017-04-08T07:17:51.003Z,975.69
2017-04-08T07:18:59.778Z,975.66
2017-04-08T07:20:08.546Z,975.67
2017-04-08T07:21:17.331Z,975.69
2017-04-08T07:22:26.090Z,975.68
2017-04-08T07:23:35.770Z,975.73
2017-04-08T07:24:44.530Z,975.69
2017-04-08T07:25:53.581Z,975.68
2017-04-08T07:27:02.524Z,975.76
2017-04-08T07:28:11.271Z,975.68
2017-04-08T07:29:19.971Z,975.74
2017-04-08T07:30:29.652Z,975.77
2017-04-08T07:31:38.713Z,975.8
2017-04-08T07:32:47.809Z,975.73
2017-04-08T07:33:56.574Z,975.77
2017-04-08T07:35:05.327Z,975.75
2017-04-08T07:36:14.063Z,975.79
2017-04-08T07:37:23.088Z,975.77
2017-04-08T07:38:31.837Z,975.81
2017-04-08T07:39:40.917Z,975.8
2017-04-08T07:40:49.978Z,975.82
2017-04-08T07:41:58.744Z,975.8
2017-04-08T07:43:08.113Z,975.8
2017-04-08T07:44:17.130Z,975.81
2017-04-08T07:45:25.883Z,975.87
2017-04-08T07:46:34.941Z,975.83
2017-04-08T07:47:43.698Z,975.88
2017-04-08T07:48:52.778Z,975.89
2017-04-08T07:50:01.848Z,975.89
2017-04-08T07:51:10.958Z,975.87
2017-04-08T07:52:20.340Z,975.87
2017-04-08T07:53:29.104Z,975.89
2017-04-08T07:54:38.121Z,975.9
2017-04-08T07:55:46.888Z,975.86
2017-04-08T07:56:55.652Z,975.89
2017-04-08T07:58:04.416Z,975.91
2017-04-08T07:59:13.829Z,975.87
2017-04-08T08:00:23.820Z,975.85
2017-04-08T08:01:32.898Z,975.9
2017-04-08T08:02:41.979Z,975.89
2017-04-08T08:03:51.592Z,975.87
2017-04-08T08:05:00.976Z,975.86
2017-04-08T08:06:10.054Z,975.89
2017-04-08T08:07:19.109Z,975.9
2017-04-08T08:08:28.121Z,975.9
2017-04-08T08:09:36.893Z,975.91
2017-04-08T08:10:46.275Z,975.87
2017-04-08T08:11:55.031Z,975.89
2017-04-08T08:13:04.106Z,975.9
2017-04-08T08:14:12.864Z,975.89
2017-04-08T08:15:22.240Z,975.93
2017-04-08T08:16:31.013Z,975.93
2017-04-08T08:17:39.780Z,975.94
2017-04-08T08:18:48.543Z,975.94
2017-04-08T08:19:57.307Z,975.95
2017-04-08T08:21:06.082Z,975.96
2017-04-08T08:22:15.747Z,975.97
2017-04-08T08:23:24.467Z,975.93
2017-04-08T08:24:33.859Z,975.97
2017-04-08T08:25:43.219Z,975.94
2017-04-08T08:26:51.914Z,975.95
2017-04-08T08:28:00.931Z,975.93
2017-04-08T08:29:10.636Z,975.93
2017-04-08T08:30:19.691Z,975.92
2017-04-08T08:31:28.402Z,975.9
2017-04-08T08:32:37.170Z,975.95
2017-04-08T08:33:46.854Z,975.93
2017-04-08T08:34:56.237Z,975.93
2017-04-08T08:36:04.965Z,975.9
2017-04-08T08:37:14.388Z,975.95
2017-04-08T08:38:23.466Z,975.87
2017-04-08T08:39:32.228Z,975.91
2017-04-08T08:40:41.029Z,975.95
2017-04-08T08:41:49.788Z,975.99
2017-04-08T08:42:58.840Z,975.94
2017-04-08T08:44:08.223Z,975.94
2017-04-08T08:45:17.901Z,975.93
2017-04-08T08:46:27.269Z,975.98
2017-04-08T08:47:36.336Z,975.95
2017-04-08T08:48:45.402Z,975.95
2017-04-08T08:49:55.048Z,975.98
2017-04-08T08:51:04.154Z,975.96
2017-04-08T08:52:12.933Z,975.99
2017-04-08T08:53:21.694Z,976.01
2017-04-08T08:54:30.452Z,976
2017-04-08T08:55:39.209Z,976.01
2017-04-08T08:56:47.920Z,975.99
2017-04-08T08:57:56.675Z,976.03
2017-04-08T08:59:05.772Z,976.02
2017-04-08T09:00:14.539Z,976.07
2017-04-08T09:01:23.296Z,976.05
2017-04-08T09:02:32.009Z,976.09
2017-04-08T09:03:41.075Z,976.06
2017-04-08T09:04:50.758Z,976.09
2017-04-08T09:06:00.729Z,976.1
2017-04-08T09:07:10.094Z,976.1
2017-04-08T09:08:19.169Z,976.09
2017-04-08T09:09:28.836Z,976.11
2017-04-08T09:10:37.886Z,976.1
2017-04-08T09:11:46.655Z,976.1
2017-04-08T09:12:55.420Z,976.11
2017-04-08T09:14:04.192Z,976.13
2017-04-08T09:15:12.957Z,976.09
2017-04-08T09:16:21.652Z,976.11
2017-04-08T09:17:30.357Z,976.1
2017-04-08T09:18:39.460Z,976.12
2017-04-08T09:19:49.775Z,976.11
2017-04-08T09:20:58.526Z,976.1
2017-04-08T09:22:07.849Z,976.11
2017-04-08T09:23:16.610Z,976.08
2017-04-08T09:24:25.920Z,976.08
2017-04-08T09:25:34.641Z,976.08
2017-04-08T09:26:43.652Z,976.04
2017-04-08T09:27:52.726Z,976.08
2017-04-08T09:29:01.467Z,976.07
2017-04-08T09:30:10.490Z,976.02
2017-04-08T09:31:19.563Z,976.03
2017-04-08T09:32:28.649Z,976.01
2017-04-08T09:33:37.650Z,976
2017-04-08T09:34:46.367Z,976.05
2017-04-08T09:35:55.692Z,976.06
2017-04-08T09:37:04.761Z,976.11
2017-04-08T09:38:13.532Z,976.1
2017-04-08T09:39:22.914Z,976.11
2017-04-08T09:40:32.011Z,976.09
2017-04-08T09:41:41.067Z,976.1
2017-04-08T09:42:49.816Z,976.11
2017-04-08T09:43:58.535Z,976.13
2017-04-08T09:45:07.298Z,976.12
2017-04-08T09:46:16.662Z,976.12
2017-04-08T09:47:25.684Z,976.1
2017-04-08T09:48:34.754Z,976.09
2017-04-08T09:49:44.131Z,976.09
2017-04-08T09:50:53.200Z,976.12
2017-04-08T09:52:02.250Z,976.11
2017-04-08T09:53:11.315Z,976.13
2017-04-08T09:54:21.315Z,976.12
2017-04-08T09:55:30.697Z,976.12
2017-04-08T09:56:39.470Z,976.15
2017-04-08T09:57:48.522Z,976.09
2017-04-08T09:58:57.832Z,976.1
2017-04-08T10:00:06.886Z,976.12
2017-04-08T10:01:15.633Z,976.14
2017-04-08T10:02:24.391Z,976.16
2017-04-08T10:03:33.471Z,976.12
2017-04-08T10:04:42.529Z,976.11
2017-04-08T10:05:51.845Z,976.14
2017-04-08T10:07:00.609Z,976.11
2017-04-08T10:08:09.871Z,976.14
2017-04-08T10:09:19.254Z,976.14
2017-04-08T10:10:28.632Z,976.15
2017-04-08T10:11:37.704Z,976.13
2017-04-08T10:12:46.801Z,976.15
2017-04-08T10:13:55.862Z,976.11
2017-04-08T10:15:04.632Z,976.16
2017-04-08T10:16:13.385Z,976.13
2017-04-08T10:17:22.093Z,976.13
2017-04-08T10:18:31.457Z,976.14
2017-04-08T10:19:40.163Z,976.11
2017-04-08T10:20:48.942Z,976.1
2017-04-08T10:21:58.316Z,976.13
2017-04-08T10:23:07.903Z,976.11
2017-04-08T10:24:16.976Z,976.1
2017-04-08T10:25:25.743Z,976.07
2017-04-08T10:26:34.793Z,976.11
2017-04-08T10:27:43.540Z,976.05
2017-04-08T10:28:52.858Z,976.04
2017-04-08T10:30:02.533Z,976.04
2017-04-08T10:31:11.295Z,976.03
2017-04-08T10:32:20.356Z,976.02
2017-04-08T10:33:29.413Z,976.01
2017-04-08T10:34:38.473Z,976.04
2017-04-08T10:35:47.246Z,976.06
2017-04-08T10:36:56.324Z,976.05
2017-04-08T10:38:05.083Z,976
2017-04-08T10:39:14.157Z,976
2017-04-08T10:40:23.115Z,976.01
2017-04-08T10:41:31.824Z,976
2017-04-08T10:42:40.588Z,976
2017-04-08T10:43:49.331Z,975.99
2017-04-08T10:44:58.345Z,975.98
2017-04-08T10:46:07.420Z,975.98
2017-04-08T10:47:16.485Z,975.92
2017-04-08T10:48:25.848Z,975.92
2017-04-08T10:49:34.863Z,975.96
2017-04-08T10:50:43.632Z,975.92
2017-04-08T10:51:53.005Z,975.92
2017-04-08T10:53:02.376Z,975.91
2017-04-08T10:54:11.138Z,975.89
2017-04-08T10:55:19.907Z,975.9
2017-04-08T10:56:28.978Z,975.89
2017-04-08T10:57:37.678Z,975.91
2017-04-08T10:58:46.383Z,975.9
2017-04-08T10:59:55.142Z,975.91
2017-04-08T11:01:03.854Z,975.87
2017-04-08T11:02:12.757Z,975.81
2017-04-08T11:03:21.829Z,975.8
2017-04-08T11:04:30.901Z,975.82
2017-04-08T11:05:39.965Z,975.83
2017-04-08T11:06:48.718Z,975.82
2017-04-08T11:07:57.487Z,975.82
2017-04-08T11:09:06.259Z,975.84
2017-04-08T11:10:15.342Z,975.8
2017-04-08T11:11:24.753Z,975.82
2017-04-08T11:12:33.520Z,975.8
2017-04-08T11:13:42.891Z,975.8
2017-04-08T11:14:51.658Z,975.83
2017-04-08T11:16:00.450Z,975.77
2017-04-08T11:17:09.517Z,975.78
2017-04-08T11:18:18.297Z,975.86
2017-04-08T11:19:27.359Z,975.81
2017-04-08T11:20:37.001Z,975.74
2017-04-08T11:21:46.369Z,975.77
2017-04-08T11:22:55.130Z,975.76
2017-04-08T11:24:04.188Z,975.77
2017-04-08T11:25:13.190Z,975.8
2017-04-08T11:26:22.502Z,975.78
2017-04-08T11:27:31.875Z,975.77
2017-04-08T11:28:40.952Z,975.76
2017-04-08T11:29:50.925Z,975.76
2017-04-08T11:31:00.556Z,975.76
2017-04-08T11:32:09.325Z,975.75
2017-04-08T11:33:18.404Z,975.73
2017-04-08T11:34:28.074Z,975.78
2017-04-08T11:35:37.119Z,975.74
2017-04-08T11:36:46.172Z,975.73
2017-04-08T11:37:55.179Z,975.74
2017-04-08T11:39:04.852Z,975.69
2017-04-08T11:40:13.854Z,975.7
2017-04-08T11:41:22.568Z,975.69
2017-04-08T11:42:31.636Z,975.69
2017-04-08T11:43:40.405Z,975.74
2017-04-08T11:44:49.773Z,975.69
2017-04-08T11:45:58.538Z,975.68
2017-04-08T11:47:07.323Z,975.68
2017-04-08T11:48:16.394Z,975.67
2017-04-08T11:49:25.452Z,975.63
2017-04-08T11:50:34.516Z,975.63
2017-04-08T11:51:43.277Z,975.62
2017-04-08T11:52:52.040Z,975.66
2017-04-08T11:54:00.808Z,975.62
2017-04-08T11:55:09.581Z,975.64
2017-04-08T11:56:18.334Z,975.6
2017-04-08T11:57:27.044Z,975.62
2017-04-08T11:58:35.803Z,975.65
2017-04-08T11:59:44.555Z,975.6
2017-04-08T12:00:54.224Z,975.6
2017-04-08T12:02:02.984Z,975.62
2017-04-08T12:03:11.684Z,975.6
2017-04-08T12:04:21.319Z,975.59
2017-04-08T12:05:30.397Z,975.58
2017-04-08T12:06:39.165Z,975.56
2017-04-08T12:07:47.930Z,975.57
2017-04-08T12:08:58.131Z,975.54
2017-04-08T12:10:07.496Z,975.57
2017-04-08T12:11:16.568Z,975.57
2017-04-08T12:12:25.644Z,975.56
2017-04-08T12:13:34.694Z,975.52
2017-04-08T12:14:43.428Z,975.51
2017-04-08T12:15:52.196Z,975.51
2017-04-08T12:17:01.275Z,975.56
2017-04-08T12:18:10.310Z,975.56
2017-04-08T12:19:19.367Z,975.52
2017-04-08T12:20:28.121Z,975.51
2017-04-08T12:21:36.816Z,975.5
2017-04-08T12:22:45.572Z,975.5
2017-04-08T12:23:54.343Z,975.52
2017-04-08T12:25:03.134Z,975.51
2017-04-08T12:26:12.201Z,975.54
2017-04-08T12:27:20.915Z,975.49
2017-04-08T12:28:29.976Z,975.47
2017-04-08T12:29:38.736Z,975.45
2017-04-08T12:30:47.504Z,975.47
2017-04-08T12:31:56.277Z,975.48
2017-04-08T12:33:05.035Z,975.45
2017-04-08T12:34:14.251Z,975.47
2017-04-08T12:35:23.311Z,975.45
2017-04-08T12:36:32.690Z,975.41
2017-04-08T12:37:41.458Z,975.44
2017-04-08T12:38:50.527Z,975.42
2017-04-08T12:39:59.577Z,975.46
2017-04-08T12:41:08.895Z,975.44
2017-04-08T12:42:17.957Z,975.47
2017-04-08T12:43:26.705Z,975.41
2017-04-08T12:44:36.027Z,975.4
2017-04-08T12:45:45.074Z,975.41
2017-04-08T12:46:53.787Z,975.4
2017-04-08T12:48:02.557Z,975.37
2017-04-08T12:49:11.328Z,975.44
2017-04-08T12:50:20.089Z,975.38
2017-04-08T12:51:28.870Z,975.39
2017-04-08T12:52:37.934Z,975.34
2017-04-08T12:53:46.677Z,975.33
2017-04-08T12:54:55.389Z,975.37
2017-04-08T12:56:04.154Z,975.28
2017-04-08T12:57:12.922Z,975.31
2017-04-08T12:58:21.983Z,975.26
2017-04-08T12:59:30.749Z,975.22
2017-04-08T13:00:39.726Z,975.31
2017-04-08T13:01:48.499Z,975.31
2017-04-08T13:02:57.263Z,975.26
2017-04-08T13:04:06.331Z,975.29
2017-04-08T13:05:15.408Z,975.22
2017-04-08T13:06:24.484Z,975.3
2017-04-08T13:07:33.247Z,975.23
2017-04-08T13:08:42.013Z,975.23
2017-04-08T13:09:51.098Z,975.23
2017-04-08T13:10:59.900Z,975.24
2017-04-08T13:12:08.668Z,975.26
2017-04-08T13:13:17.743Z,975.24
2017-04-08T13:14:27.118Z,975.16
2017-04-08T13:15:36.493Z,975.18
2017-04-08T13:16:45.248Z,975.21
2017-04-08T13:17:54.259Z,975.17
2017-04-08T13:19:03.320Z,975.14
2017-04-08T13:20:12.730Z,975.14
2017-04-08T13:21:21.424Z,975.16
2017-04-08T13:22:30.120Z,975.14
2017-04-08T13:23:39.453Z,975.14
2017-04-08T13:24:48.221Z,975.13
2017-04-08T13:25:57.608Z,975.1
2017-04-08T13:27:07.176Z,975.07
2017-04-08T13:28:16.249Z,975.05
2017-04-08T13:29:25.934Z,975.04
2017-04-08T13:30:35.293Z,975
2017-04-08T13:31:44.059Z,975.01
2017-04-08T13:32:52.803Z,974.99
2017-04-08T13:34:01.816Z,975.01
2017-04-08T13:35:10.876Z,974.98
2017-04-08T13:36:19.628Z,974.97
2017-04-08T13:37:28.352Z,974.96
2017-04-08T13:38:37.428Z,974.98
2017-04-08T13:39:46.197Z,974.93
2017-04-08T13:40:55.268Z,974.93
2017-04-08T13:42:04.357Z,974.94
2017-04-08T13:43:13.063Z,974.93
2017-04-08T13:44:21.834Z,974.92
2017-04-08T13:45:30.599Z,974.93
2017-04-08T13:46:39.375Z,974.9
2017-04-08T13:47:48.130Z,974.92
2017-04-08T13:48:57.182Z,974.88
2017-04-08T13:50:06.495Z,974.91
2017-04-08T13:51:15.264Z,974.85
2017-04-08T13:52:24.311Z,974.85
2017-04-08T13:53:33.374Z,974.82
2017-04-08T13:54:42.080Z,974.79
2017-04-08T13:55:51.147Z,974.84
2017-04-08T13:56:59.871Z,974.78
2017-04-08T13:58:08.642Z,974.79
2017-04-08T13:59:17.416Z,974.79
2017-04-08T14:00:26.183Z,974.76
2017-04-08T14:01:34.945Z,974.75
2017-04-08T14:02:44.620Z,974.75
2017-04-08T14:03:53.678Z,974.76
2017-04-08T14:05:02.723Z,974.75
2017-04-08T14:06:11.452Z,974.74
2017-04-08T14:07:20.504Z,974.71
2017-04-08T14:08:29.509Z,974.72
2017-04-08T14:09:38.817Z,974.72
2017-04-08T14:10:47.875Z,974.72
2017-04-08T14:11:56.579Z,974.75
2017-04-08T14:13:05.341Z,974.71
2017-04-08T14:14:14.998Z,974.68
2017-04-08T14:15:23.711Z,974.68
2017-04-08T14:16:33.077Z,974.64
2017-04-08T14:17:41.829Z,974.61
2017-04-08T14:18:50.835Z,974.59
2017-04-08T14:19:59.866Z,974.64
2017-04-08T14:21:08.887Z,974.57
2017-04-08T14:22:18.352Z,974.61
2017-04-08T14:23:27.685Z,974.58
2017-04-08T14:24:36.760Z,974.58
2017-04-08T14:25:45.810Z,974.58